Time;durP1;ratioP1;P1;durP2;ratioP2;P2;SDS_P1;SDS_P2;PMS_P1;PMS_P2;Temp;Humidity;BMP_temperature;BMP_pressure;BME280_temperature;BME280_humidity;BME280_pressure;Samples;Min_cycle;Max_cycle;Signal;HPM_P1;HPM_P2
2021/01/12 00:08:24;;;;;;;13.05;7.20;;;3.20;99.90;;;;;;6703670;87;20648;-77
2021/01/12 00:18:24;;;;;;;13.00;6.80;;;3.40;99.90;;;;;;6734340;87;20237;-78
2021/01/12 00:28:25;;;;;;;15.00;6.30;;;3.50;99.90;;;;;;6709905;87;20346;-76
2021/01/12 00:38:26;;;;;;;13.55;6.95;;;3.50;99.90;;;;;;6729306;87;20183;-77
2021/01/12 00:48:26;;;;;;;10.07;5.25;;;3.50;99.90;;;;;;6683667;87;20216;-76
2021/01/12 00:58:27;;;;;;;10.73;5.15;;;3.70;99.90;;;;;;6695487;88;20698;-76
2021/01/12 01:08:28;;;;;;;8.50;4.55;;;3.80;99.90;;;;;;6690475;87;20505;-76
2021/01/12 01:18:28;;;;;;;7.25;3.65;;;4.00;99.90;;;;;;6687072;87;20248;-74
2021/01/12 01:28:29;;;;;;;5.75;2.92;;;4.10;99.90;;;;;;6698918;87;20203;-74
2021/01/12 01:38:31;;;;;;;4.25;2.35;;;4.50;99.90;;;;;;6713652;87;20200;-76
2021/01/12 01:48:32;;;;;;;4.18;2.55;;;4.70;99.90;;;;;;6708729;87;20321;-77
2021/01/12 01:58:41;;;;;;;4.22;2.28;;;4.80;99.90;;;;;;6735714;87;20715;-76
2021/01/12 02:08:51;;;;;;;3.40;1.83;;;4.90;99.90;;;;;;6788084;87;20191;-76
2021/01/12 02:18:53;;;;;;;2.90;1.30;;;4.80;99.90;;;;;;6789484;87;20179;-77
2021/01/12 02:28:54;;;;;;;2.60;1.50;;;5.00;99.90;;;;;;6790891;87;20234;-77
2021/01/12 02:38:55;;;;;;;2.50;1.37;;;4.80;99.90;;;;;;6788641;87;20737;-77
2021/01/12 02:48:55;;;;;;;1.73;0.77;;;4.90;99.90;;;;;;6789064;87;20204;-77
2021/01/12 02:58:56;;;;;;;2.08;1.05;;;5.10;99.90;;;;;;6794804;87;20194;-77
2021/01/12 03:08:56;;;;;;;1.90;0.70;;;4.90;99.90;;;;;;6791247;87;20309;-78
2021/01/12 03:18:57;;;;;;;1.00;0.50;;;5.00;99.90;;;;;;6796306;87;20207;-77
2021/01/12 03:28:57;;;;;;;1.42;0.40;;;5.20;99.90;;;;;;6790565;87;20969;-76
2021/01/12 03:38:58;;;;;;;1.00;0.30;;;5.10;99.90;;;;;;6792196;87;20191;-76
2021/01/12 03:48:58;;;;;;;0.75;0.30;;;5.00;99.90;;;;;;6786444;87;20219;-75
2021/01/12 03:59:00;;;;;;;1.17;0.40;;;5.00;99.90;;;;;;6785764;87;20309;-76
2021/01/12 04:09:00;;;;;;;0.60;0.20;;;5.00;99.90;;;;;;6788161;87;20171;-75
2021/01/12 04:19:01;;;;;;;0.77;0.30;;;5.00;99.90;;;;;;6799235;87;20190;-75
2021/01/12 04:29:01;;;;;;;0.65;0.22;;;5.00;99.90;;;;;;6795537;87;20897;-76
2021/01/12 04:39:03;;;;;;;0.40;0.20;;;4.80;99.90;;;;;;6809252;87;20284;-76
2021/01/12 04:49:03;;;;;;;0.90;0.30;;;4.70;99.90;;;;;;6798948;87;20186;-76
2021/01/12 04:59:04;;;;;;;0.50;0.20;;;4.60;99.90;;;;;;6794011;87;20391;-76
2021/01/12 05:09:05;;;;;;;0.68;0.22;;;4.70;99.90;;;;;;6799716;87;20190;-76
2021/01/12 05:19:07;;;;;;;1.23;0.20;;;4.70;99.90;;;;;;6798197;87;20622;-76
2021/01/12 05:29:07;;;;;;;0.37;0.17;;;4.60;99.90;;;;;;6799618;87;20277;-76
2021/01/12 05:39:09;;;;;;;0.40;0.20;;;4.80;99.90;;;;;;6798486;87;20239;-75
2021/01/12 05:49:10;;;;;;;0.88;0.20;;;4.70;99.90;;;;;;6798585;87;20396;-76
2021/01/12 05:59:24;;;;;;;0.50;0.10;;;4.60;99.90;;;;;;6791739;76;20181;-75
2021/01/12 06:09:25;;;;;;;0.47;0.20;;;4.60;99.90;;;;;;6738542;88;20252;-75
2021/01/12 06:19:30;;;;;;;0.30;0.10;;;4.60;99.90;;;;;;6738311;88;20213;-75
2021/01/12 06:29:31;;;;;;;1.60;0.40;;;4.60;99.90;;;;;;6738951;88;20369;-76
2021/01/12 06:39:46;;;;;;;0.43;0.20;;;4.50;99.90;;;;;;6737006;88;20205;-76
2021/01/12 06:49:47;;;;;;;0.98;0.30;;;4.60;99.90;;;;;;6738096;88;20181;-75
2021/01/12 06:59:55;;;;;;;0.50;0.33;;;4.70;99.90;;;;;;6742870;87;20214;-75
2021/01/12 07:10:02;;;;;;;0.80;0.30;;;4.90;99.90;;;;;;6752305;87;20537;-75
2021/01/12 07:20:03;;;;;;;0.70;0.20;;;5.00;99.90;;;;;;6754434;87;20191;-76
2021/01/12 07:30:08;;;;;;;0.32;0.10;;;4.90;99.90;;;;;;6750599;88;20952;-75
2021/01/12 07:40:14;;;;;;;0.50;0.17;;;4.90;99.90;;;;;;6757613;87;20347;-75
2021/01/12 07:50:14;;;;;;;0.17;0.10;;;4.80;99.90;;;;;;6758573;87;20189;-76
2021/01/12 08:00:17;;;;;;;0.28;0.10;;;4.80;99.90;;;;;;6754157;87;20184;-75
2021/01/12 08:10:18;;;;;;;0.28;0.10;;;4.80;99.90;;;;;;6754983;87;20186;-75
2021/01/12 08:20:19;;;;;;;0.37;0.10;;;4.80;99.90;;;;;;6753803;87;20224;-76
2021/01/12 08:30:22;;;;;;;0.40;0.10;;;4.90;99.90;;;;;;6761643;88;20218;-76
2021/01/12 08:40:25;;;;;;;1.70;0.17;;;4.90;99.90;;;;;;6758953;88;20964;-76
2021/01/12 08:50:29;;;;;;;1.00;0.25;;;5.00;99.90;;;;;;6757199;88;20343;-76
2021/01/12 09:00:33;;;;;;;0.65;0.20;;;4.90;99.90;;;;;;6756821;87;20198;-75
2021/01/12 09:10:35;;;;;;;0.80;0.30;;;5.10;99.90;;;;;;6756711;87;20231;-76
2021/01/12 09:20:40;;;;;;;0.70;0.20;;;5.10;99.90;;;;;;6757401;88;20668;-76
2021/01/12 09:30:42;;;;;;;0.20;0.10;;;5.20;99.90;;;;;;6753833;87;20681;-76
2021/01/12 09:40:43;;;;;;;0.10;0.10;;;5.30;99.90;;;;;;6753474;87;20235;-76
2021/01/12 09:50:44;;;;;;;0.30;0.10;;;5.40;99.90;;;;;;6755236;88;20189;-76
2021/01/12 10:00:44;;;;;;;0.30;0.15;;;5.50;99.90;;;;;;6753709;88;20303;-75
2021/01/12 10:10:45;;;;;;;0.30;0.10;;;5.60;99.90;;;;;;6760719;88;20288;-76
2021/01/12 10:20:45;;;;;;;0.85;0.20;;;5.60;99.90;;;;;;6758466;87;20270;-76
2021/01/12 10:30:46;;;;;;;0.30;0.20;;;5.70;99.90;;;;;;6764812;87;20757;-75
2021/01/12 10:40:46;;;;;;;0.30;0.10;;;5.70;99.90;;;;;;6753886;87;20196;-75
2021/01/12 10:50:47;;;;;;;0.37;0.13;;;5.60;99.90;;;;;;6748564;88;20204;-76
2021/01/12 11:00:49;;;;;;;2.30;0.30;;;5.50;99.90;;;;;;6745933;88;20176;-76
2021/01/12 11:10:49;;;;;;;1.20;0.57;;;5.60;99.90;;;;;;6751684;88;20498;-75
2021/01/12 11:20:50;;;;;;;1.60;0.70;;;5.60;99.90;;;;;;6746204;87;21042;-76
2021/01/12 11:30:51;;;;;;;2.15;0.93;;;6.00;99.90;;;;;;6743005;88;20615;-76
2021/01/12 11:40:51;;;;;;;2.30;1.50;;;6.30;99.90;;;;;;6755492;88;20625;-76
2021/01/12 11:50:52;;;;;;;4.85;2.72;;;6.40;99.90;;;;;;6760249;87;20205;-77
2021/01/12 12:00:52;;;;;;;6.87;3.55;;;6.70;99.90;;;;;;6741913;88;20188;-77
2021/01/12 12:10:53;;;;;;;8.43;4.28;;;7.10;99.90;;;;;;6758338;87;20658;-78
2021/01/12 12:20:54;;;;;;;6.20;4.20;;;7.10;99.90;;;;;;6765013;87;20241;-78
2021/01/12 12:30:54;;;;;;;6.05;3.10;;;7.20;99.90;;;;;;6754279;87;20496;-77
2021/01/12 12:40:55;;;;;;;4.37;2.70;;;7.20;99.90;;;;;;6764423;87;20274;-77
2021/01/12 12:50:56;;;;;;;4.90;2.42;;;7.10;99.90;;;;;;6766254;87;20179;-77
2021/01/12 13:00:57;;;;;;;4.18;1.98;;;6.70;99.90;;;;;;6772927;87;20195;-78
2021/01/12 13:10:58;;;;;;;3.03;0.85;;;6.40;99.90;;;;;;6754867;88;20185;-77
2021/01/12 13:21:00;;;;;;;1.42;0.47;;;6.10;99.90;;;;;;6753443;87;20223;-77
2021/01/12 13:31:00;;;;;;;2.22;0.90;;;6.10;99.90;;;;;;6747372;88;20201;-77
2021/01/12 13:41:01;;;;;;;2.05;1.00;;;6.10;99.90;;;;;;6745926;88;20953;-77
2021/01/12 13:51:02;;;;;;;2.58;0.90;;;6.10;99.90;;;;;;6748596;88;20287;-77
2021/01/12 14:01:03;;;;;;;3.67;1.30;;;6.10;99.90;;;;;;6748483;88;20247;-77
2021/01/12 14:11:06;;;;;;;6.22;2.10;;;6.20;99.90;;;;;;6741131;88;20356;-77
2021/01/12 14:21:18;;;;;;;8.52;4.30;;;6.10;99.90;;;;;;6757607;87;20172;-77
2021/01/12 14:31:18;;;;;;;1.42;0.50;;;6.10;99.90;;;;;;6765859;88;20188;-77
2021/01/12 14:41:21;;;;;;;3.00;0.40;;;5.80;99.90;;;;;;6770645;88;20285;-76
2021/01/12 14:51:22;;;;;;;2.53;0.70;;;5.40;99.90;;;;;;6767548;87;20600;-77
2021/01/12 15:01:22;;;;;;;1.40;0.50;;;5.30;99.90;;;;;;6764915;88;20203;-77
2021/01/12 15:11:23;;;;;;;2.12;0.88;;;5.30;99.90;;;;;;6754089;87;20201;-77
2021/01/12 15:21:24;;;;;;;3.45;0.65;;;5.30;99.90;;;;;;6751116;87;20195;-76
2021/01/12 15:31:24;;;;;;;6.05;0.73;;;5.10;99.90;;;;;;6741655;88;20211;-77
2021/01/12 15:41:25;;;;;;;5.87;0.60;;;4.80;99.90;;;;;;6741492;88;20243;-76
2021/01/12 15:51:25;;;;;;;4.20;0.90;;;4.60;99.90;;;;;;6745305;88;20203;-77
2021/01/12 16:01:26;;;;;;;8.18;1.08;;;4.70;99.90;;;;;;6745074;88;20318;-76
2021/01/12 16:11:32;;;;;;;6.47;1.20;;;4.60;99.90;;;;;;6742657;88;20270;-77
2021/01/12 16:21:35;;;;;;;8.20;1.87;;;4.60;99.90;;;;;;6737744;87;20308;-77
2021/01/12 16:31:36;;;;;;;6.40;1.40;;;4.60;99.90;;;;;;6745346;88;20901;-77
2021/01/12 16:41:41;;;;;;;2.95;1.48;;;4.40;99.90;;;;;;6737148;88;20209;-78
2021/01/12 16:51:44;;;;;;;7.95;1.30;;;4.00;99.90;;;;;;6733568;88;20226;-78
2021/01/12 17:01:48;;;;;;;9.30;1.62;;;3.80;99.90;;;;;;6740672;88;20196;-77
2021/01/12 17:11:51;;;;;;;4.03;1.40;;;3.60;99.90;;;;;;6741814;88;20218;-77
2021/01/12 17:22:01;;;;;;;3.45;1.05;;;3.40;99.90;;;;;;6742309;87;20197;-77
2021/01/12 17:32:04;;;;;;;6.28;1.20;;;3.30;99.90;;;;;;6739089;88;20673;-76
2021/01/12 17:42:06;;;;;;;9.35;1.05;;;3.40;99.90;;;;;;6739975;88;20272;-76
2021/01/12 17:52:15;;;;;;;6.85;1.42;;;3.40;99.90;;;;;;6734642;88;20657;-78
2021/01/12 18:02:17;;;;;;;6.93;1.70;;;3.50;99.90;;;;;;6739269;88;20260;-76
2021/01/12 18:12:19;;;;;;;9.77;1.85;;;3.50;99.90;;;;;;6738164;88;20241;-76
2021/01/12 18:22:21;;;;;;;6.43;1.17;;;3.70;99.90;;;;;;6719350;88;20294;-76
2021/01/12 18:32:21;;;;;;;6.93;1.35;;;3.60;99.90;;;;;;6748997;87;20164;-77
2021/01/12 18:42:23;;;;;;;8.57;1.15;;;3.70;99.90;;;;;;6758034;88;20181;-75
2021/01/12 18:52:24;;;;;;;4.80;0.90;;;3.70;99.90;;;;;;6754549;88;20656;-77
2021/01/12 19:02:27;;;;;;;7.53;1.02;;;3.70;99.90;;;;;;6739634;88;20265;-75
2021/01/12 19:12:29;;;;;;;4.60;1.20;;;3.70;99.90;;;;;;6731479;88;20210;-77
2021/01/12 19:22:30;;;;;;;5.15;1.27;;;3.70;99.90;;;;;;6739922;87;20941;-75
2021/01/12 19:32:40;;;;;;;8.90;1.42;;;3.50;99.90;;;;;;6754686;87;20196;-74
2021/01/12 19:42:41;;;;;;;6.62;1.70;;;3.20;99.90;;;;;;6754103;87;22420;-75
2021/01/12 19:52:51;;;;;;;6.18;1.50;;;3.10;99.90;;;;;;6748425;87;20309;-77
2021/01/12 20:02:52;;;;;;;6.47;1.35;;;3.00;99.90;;;;;;6739953;88;20312;-78
2021/01/12 20:13:04;;;;;;;13.23;1.80;;;3.10;99.90;;;;;;6740757;88;20208;-77
2021/01/12 20:23:12;;;;;;;7.62;1.62;;;3.00;99.90;;;;;;6742345;88;20205;-77
2021/01/12 20:33:13;;;;;;;8.65;1.70;;;2.80;99.90;;;;;;6740698;88;20188;-77
2021/01/12 20:43:14;;;;;;;5.07;1.50;;;2.70;99.90;;;;;;6764425;87;20623;-77
2021/01/12 20:53:18;;;;;;;7.40;1.30;;;2.60;99.90;;;;;;6754703;88;20247;-77
2021/01/12 21:03:20;;;;;;;5.45;1.42;;;2.60;99.90;;;;;;6744839;88;20205;-77
2021/01/12 21:13:20;;;;;;;12.30;1.95;;;2.50;99.90;;;;;;6756382;88;20259;-78
2021/01/12 21:23:21;;;;;;;8.18;2.20;;;2.40;99.90;;;;;;6754724;87;20323;-78
2021/01/12 21:33:21;;;;;;;6.47;1.77;;;2.30;99.90;;;;;;6761714;88;20292;-76
2021/01/12 21:43:22;;;;;;;13.70;2.33;;;2.30;99.90;;;;;;6761687;87;20194;-76
2021/01/12 21:53:24;;;;;;;12.07;2.53;;;2.30;99.90;;;;;;6759638;88;20512;-76
2021/01/12 22:03:24;;;;;;;9.65;2.75;;;2.20;99.90;;;;;;6744198;88;20206;-77
2021/01/12 22:13:25;;;;;;;7.28;2.78;;;2.20;99.90;;;;;;6741366;88;20759;-77
2021/01/12 22:23:27;;;;;;;8.85;2.55;;;2.20;99.90;;;;;;6751511;88;20690;-77
2021/01/12 22:33:27;;;;;;;11.45;3.00;;;2.20;99.90;;;;;;6754745;88;20973;-76
2021/01/12 22:43:28;;;;;;;13.77;3.30;;;2.20;99.90;;;;;;6758754;87;20318;-77
2021/01/12 22:53:29;;;;;;;7.95;2.55;;;2.10;99.90;;;;;;6754608;87;20507;-77
2021/01/12 23:03:29;;;;;;;13.48;3.47;;;2.10;99.90;;;;;;6756779;87;20197;-77
2021/01/12 23:13:32;;;;;;;12.40;3.53;;;2.20;99.90;;;;;;6760851;88;20183;-76
2021/01/12 23:23:32;;;;;;;18.08;3.58;;;2.20;99.90;;;;;;6754099;87;20176;-77
2021/01/12 23:33:33;;;;;;;11.65;3.35;;;2.40;99.90;;;;;;6760472;88;20172;-77
2021/01/12 23:43:36;;;;;;;13.38;3.00;;;2.30;99.90;;;;;;6759901;87;20186;-77
2021/01/12 23:53:37;;;;;;;13.57;3.50;;;2.20;99.90;;;;;;6759293;87;20165;-77
